North Central West Virginia Airport
KCKB : now visible

Airfield :











YOU CAN JOIN US ON...

 
LOGIN :

Register | Disclaimer

   EN    FR    IT 

 









Legend :    VFR   Marginal VFR   IFR   Intensive IFR   Very Intensive IFR
Visi :
Ceiling :
>= 8 km
>= 3000ft
5 to 8 km
1000 to 3000 ft
1500m to 5 km
500 to 1000 ft
800 to 1500m
200 to 500 ft
< 800m
< 200 ft
Symbols :   Thunderstorms  Fog  Heavy snow  Heavy precipitations  Wind > 20 kt






- Airport Elevation : 1217 ft
- IATA code : CKB


KCKB - North Central West Virginia

CURRENT METAR :
  • 020953Z AUTO 19004KT 10SM SCT120 21/20 A3000 RMK AO2 RAB0854E03 SLP144 T02110200 PNO $

EXPIRED METARs :
  • 020853Z AUTO 16006KT 10SM FEW065 SCT090 BKN110 22/20 A3001 RMK AO2 RAE49 SLP145 6//// T02170200 50011 PNO $
  • 012153Z 16005KT 10SM CLR 26/21 A3004 RMK AO2 SLP159 T02560211
  • 020756Z AUTO 31003KT 4SM RA BR FEW009 BKN090 OVC110 23/21 A3001 RMK AO2 LTG DSNT E T02330211 PNO $
  • 020753Z AUTO 00000KT 4SM VCTS RA BR FEW011 BKN090 OVC110 23/21 A3001 RMK AO2 LTG DSNT E RAB04 TSB09E50 SLP146 T02330211 PNO $
  • 020741Z AUTO 31004KT 3SM TSRA BR SCT016 BKN049 OVC085 23/22 A3001 RMK AO2 LTG DSNT NE AND E RAB04 TSB09 T02330217 PNO $

TAF KCKB
Valid from the 02 at 08:00 until the 03 at 06:00 UTC


020822Z 0208/0306 VRB03KT 6SM -SHRA BR SCT009 BKN050
TEMPO 0208/0212 3SM SHRA BR BKN012 BKN025
FM021300 VRB03KT P6SM VCTS BKN060CB
FM021500 26005KT P6SM VCTS BKN045CB
FM021800 27005KT P6SM BKN060
FM030100 00000KT P6SM SCT180
KZOB FIR / North America



MET'MAP, your aeronautical weather chart ! - Copyright ORBIFLY December 2007 - Disclaimer

ORBIFLY MET'MAP TEAM :

Programming & Development : Alexandra Zaïnal
Original concept : Baudouin d'Aumeries
Technical & hardware support : Manuel Goepfert
Assistance : Marc-Olivier Méhu




SOURCES & CREDITS :

   NOAA       Earth
Advisory